Time;durP1;ratioP1;P1;durP2;ratioP2;P2;SDS_P1;SDS_P2;PMS_P1;PMS_P2;Temp;Humidity;BMP_temperature;BMP_pressure;BME280_temperature;BME280_humidity;BME280_pressure;Samples;Min_cycle;Max_cycle;Signal;HPM_P1;HPM_P2
2022/08/16 00:00:06;;;;;;;3.50;2.90;;;25.50;59.20;;;;;;5128920;28;20044;-67
2022/08/16 00:02:32;;;;;;;3.40;3.20;;;25.50;59.30;;;;;;5128686;28;20047;-67
2022/08/16 00:04:58;;;;;;;3.30;3.10;;;25.50;59.30;;;;;;5163057;27;20122;-67
2022/08/16 00:07:24;;;;;;;3.38;3.08;;;25.40;59.20;;;;;;5129134;28;20384;-67
2022/08/16 00:09:50;;;;;;;3.28;2.97;;;25.50;60.10;;;;;;5128437;28;20092;-67
2022/08/16 00:12:16;;;;;;;3.30;3.10;;;25.50;59.30;;;;;;5129796;28;20035;-67
2022/08/16 00:14:41;;;;;;;3.28;3.08;;;25.40;59.30;;;;;;5128658;28;20359;-67
2022/08/16 00:17:07;;;;;;;3.15;2.95;;;25.40;59.20;;;;;;5128833;28;20055;-67
2022/08/16 00:19:34;;;;;;;2.95;2.75;;;25.40;59.30;;;;;;5163107;27;20036;-67
2022/08/16 00:22:01;;;;;;;3.75;3.45;;;25.40;59.30;;;;;;5129473;27;20039;-67
2022/08/16 00:24:28;;;;;;;3.83;3.53;;;25.40;59.30;;;;;;5128172;28;20028;-67
2022/08/16 00:26:54;;;;;;;3.55;3.35;;;25.40;59.30;;;;;;5128136;28;20507;-67
2022/08/16 00:29:20;;;;;;;3.17;2.97;;;25.40;59.30;;;;;;5128497;28;20032;-67
2022/08/16 00:31:48;;;;;;;3.65;3.35;;;25.40;59.40;;;;;;5129322;28;20554;-69
2022/08/16 00:34:14;;;;;;;4.30;3.92;;;25.40;59.40;;;;;;5129397;27;20076;-67
2022/08/16 00:36:40;;;;;;;3.22;3.03;;;25.40;59.40;;;;;;5127941;28;20118;-67
2022/08/16 00:39:06;;;;;;;3.30;3.10;;;25.40;59.40;;;;;;5129204;28;20119;-67
2022/08/16 00:41:33;;;;;;;3.40;3.10;;;25.40;59.40;;;;;;5127520;28;20057;-67
2022/08/16 00:44:09;;;;;;;4.50;3.53;;;25.40;59.50;;;;;;5129232;27;20530;-67
2022/08/16 00:46:38;;;;;;;3.25;3.05;;;25.40;59.50;;;;;;5128061;28;20048;-67
2022/08/16 00:49:08;;;;;;;3.53;3.25;;;25.40;59.50;;;;;;5127733;28;20043;-67
2022/08/16 00:51:33;;;;;;;3.55;3.35;;;25.40;59.50;;;;;;5128966;27;20035;-67
2022/08/16 00:53:59;;;;;;;2.72;2.53;;;25.40;59.50;;;;;;5114095;28;20550;-67
2022/08/16 00:56:29;;;;;;;2.90;2.72;;;25.30;60.20;;;;;;5148615;27;20114;-67
2022/08/16 00:58:54;;;;;;;3.83;3.58;;;25.30;59.50;;;;;;5113939;28;20507;-67
2022/08/16 01:01:21;;;;;;;3.58;3.35;;;25.40;59.50;;;;;;5114990;28;20182;-66
2022/08/16 01:03:50;;;;;;;3.67;3.38;;;25.30;59.50;;;;;;5113721;28;20036;-67
2022/08/16 01:06:18;;;;;;;3.45;3.15;;;25.40;59.60;;;;;;5113751;28;20048;-67
2022/08/16 01:08:45;;;;;;;3.13;2.92;;;25.40;59.60;;;;;;5113996;28;20055;-67
2022/08/16 01:11:12;;;;;;;3.22;3.03;;;25.30;59.50;;;;;;5113911;28;20051;-67
2022/08/16 01:13:39;;;;;;;3.65;3.35;;;25.40;59.60;;;;;;5113867;28;20488;-67
2022/08/16 01:16:10;;;;;;;3.35;3.13;;;25.40;59.70;;;;;;5113488;28;20066;-66
2022/08/16 01:18:43;;;;;;;3.53;3.25;;;25.30;59.60;;;;;;5114816;28;20036;-67
2022/08/16 01:26:43;;;;;;;3.63;3.40;;;25.30;59.60;;;;;;5130292;27;20354;-67
2022/08/16 01:29:15;;;;;;;3.67;3.38;;;25.30;59.60;;;;;;5129186;28;20036;-66
2022/08/16 01:31:41;;;;;;;3.42;3.13;;;25.30;59.60;;;;;;5129156;28;20036;-67
2022/08/16 01:34:08;;;;;;;3.42;3.22;;;25.30;59.60;;;;;;5128937;28;20028;-67
2022/08/16 01:36:34;;;;;;;3.40;3.20;;;25.30;59.60;;;;;;5129011;28;20062;-67
2022/08/16 01:39:10;;;;;;;2.95;2.75;;;25.30;59.60;;;;;;5129098;28;20043;-67
2022/08/16 01:41:35;;;;;;;3.70;3.50;;;25.30;59.60;;;;;;5129002;28;20493;-67
2022/08/16 01:44:01;;;;;;;3.92;3.63;;;25.30;59.60;;;;;;5128861;28;20130;-67
2022/08/16 01:49:12;;;;;;;3.28;3.00;;;25.20;59.60;;;;;;5130230;27;20350;-66
2022/08/16 01:51:40;;;;;;;4.05;3.75;;;25.30;59.60;;;;;;5129020;28;20075;-67
2022/08/16 01:54:06;;;;;;;2.97;2.78;;;25.30;59.60;;;;;;5128841;28;20603;-67
2022/08/16 01:56:32;;;;;;;3.15;2.95;;;25.20;59.50;;;;;;5128821;28;20057;-67
2022/08/16 01:59:00;;;;;;;3.70;3.40;;;25.20;59.60;;;;;;5128927;28;20039;-67
2022/08/16 02:01:27;;;;;;;3.88;3.38;;;25.20;59.50;;;;;;5129062;28;20036;-67
2022/08/16 02:03:53;;;;;;;3.35;3.05;;;25.30;59.60;;;;;;5128916;28;20451;-68
2022/08/16 02:06:19;;;;;;;3.20;3.00;;;25.20;59.50;;;;;;5129061;28;20125;-67
2022/08/16 02:08:45;;;;;;;3.25;2.95;;;25.30;59.60;;;;;;5128517;28;20046;-67
2022/08/16 02:11:12;;;;;;;3.63;3.33;;;25.30;59.60;;;;;;5128775;28;20119;-67
2022/08/16 02:13:40;;;;;;;3.67;3.47;;;25.20;59.50;;;;;;5129964;27;20106;-67
2022/08/16 02:16:06;;;;;;;3.85;3.58;;;25.20;59.50;;;;;;5128826;28;20145;-67
2022/08/16 02:18:33;;;;;;;2.95;2.75;;;25.20;59.50;;;;;;5129859;27;20043;-67
2022/08/16 02:20:59;;;;;;;3.80;3.50;;;25.20;59.50;;;;;;5145634;27;20061;-67
2022/08/16 02:23:25;;;;;;;3.17;2.97;;;25.20;59.50;;;;;;5129629;27;20044;-67
2022/08/16 02:25:51;;;;;;;3.00;2.80;;;25.20;59.50;;;;;;5129569;27;20084;-67
2022/08/16 02:28:17;;;;;;;2.90;2.70;;;25.20;59.50;;;;;;5128537;27;20051;-66
2022/08/16 02:30:44;;;;;;;3.47;3.28;;;25.20;59.50;;;;;;5129902;27;20035;-67
2022/08/16 02:33:13;;;;;;;4.10;3.80;;;25.20;59.50;;;;;;5128222;28;20506;-67
2022/08/16 02:35:39;;;;;;;3.33;3.13;;;25.20;59.50;;;;;;5129391;28;20049;-67
2022/08/16 02:38:05;;;;;;;3.08;2.88;;;25.20;59.50;;;;;;5129316;28;20048;-67
2022/08/16 02:40:33;;;;;;;3.80;3.50;;;25.20;59.50;;;;;;5127997;28;20432;-67
2022/08/16 02:42:59;;;;;;;3.45;3.10;;;25.20;59.50;;;;;;5129305;28;20046;-67
2022/08/16 02:45:27;;;;;;;3.72;3.45;;;25.20;59.50;;;;;;5127871;28;20039;-66
2022/08/16 02:47:53;;;;;;;3.35;3.10;;;25.20;59.60;;;;;;5129030;27;20411;-67
2022/08/16 02:50:19;;;;;;;3.70;3.40;;;25.20;59.50;;;;;;5127864;28;20122;-67
2022/08/16 02:52:45;;;;;;;3.50;3.20;;;25.10;59.40;;;;;;5127878;28;20035;-67
2022/08/16 02:55:11;;;;;;;3.17;2.90;;;25.20;59.50;;;;;;5127653;28;20065;-66
2022/08/16 02:57:36;;;;;;;3.10;2.90;;;25.20;59.50;;;;;;5129128;28;20118;-67
2022/08/16 03:00:08;;;;;;;3.42;3.13;;;25.10;59.40;;;;;;5116387;28;20045;-67
2022/08/16 03:02:34;;;;;;;3.63;3.42;;;25.20;59.50;;;;;;5115550;28;20450;-67
2022/08/16 03:05:00;;;;;;;3.45;3.15;;;25.20;59.50;;;;;;5114134;28;20075;-67
2022/08/16 03:07:26;;;;;;;3.40;3.20;;;25.20;59.50;;;;;;5115136;28;20097;-67
2022/08/16 03:09:51;;;;;;;4.53;3.33;;;25.20;59.50;;;;;;5113898;28;20111;-67
2022/08/16 03:12:18;;;;;;;3.53;3.20;;;25.10;59.40;;;;;;5131143;27;20517;-66
2022/08/16 03:14:44;;;;;;;4.07;3.78;;;25.10;59.40;;;;;;5114048;28;20039;-69
2022/08/16 03:17:09;;;;;;;3.45;3.25;;;25.10;59.40;;;;;;5113778;28;20047;-67
2022/08/16 03:19:36;;;;;;;3.42;3.22;;;25.10;59.40;;;;;;5114845;28;20028;-67
2022/08/16 03:22:02;;;;;;;3.45;3.15;;;25.10;59.30;;;;;;5114806;28;20115;-67
2022/08/16 03:24:28;;;;;;;3.47;3.17;;;25.10;59.40;;;;;;5113797;28;20317;-69
2022/08/16 03:26:56;;;;;;;3.40;3.15;;;25.10;59.40;;;;;;5113389;28;20538;-67
2022/08/16 03:29:22;;;;;;;3.70;3.40;;;25.10;59.40;;;;;;5113494;28;20047;-67
2022/08/16 03:31:48;;;;;;;3.15;2.95;;;25.10;59.40;;;;;;5113435;28;20031;-67
2022/08/16 03:34:14;;;;;;;3.85;3.55;;;25.10;59.80;;;;;;5113798;28;20051;-67
2022/08/16 03:36:39;;;;;;;3.30;3.05;;;25.10;60.10;;;;;;5113515;28;20042;-67
2022/08/16 03:39:05;;;;;;;3.35;3.05;;;25.10;59.40;;;;;;5113236;28;20532;-67
2022/08/16 03:41:30;;;;;;;3.50;3.20;;;25.00;59.30;;;;;;5114357;28;20044;-67
2022/08/16 03:43:56;;;;;;;2.90;2.70;;;25.00;59.30;;;;;;5113320;28;20569;-67
2022/08/16 03:46:22;;;;;;;3.75;3.45;;;25.00;59.30;;;;;;5113363;28;20040;-67
2022/08/16 03:48:48;;;;;;;3.60;3.40;;;25.10;59.40;;;;;;5112845;28;20060;-67
2022/08/16 03:51:15;;;;;;;3.28;2.97;;;25.00;59.40;;;;;;5113240;28;20040;-67
2022/08/16 03:53:41;;;;;;;3.40;3.20;;;25.00;59.40;;;;;;5113054;28;20050;-67
2022/08/16 03:56:09;;;;;;;3.70;3.40;;;25.00;59.30;;;;;;5113269;28;20043;-67
2022/08/16 03:58:35;;;;;;;2.70;2.50;;;25.00;59.30;;;;;;5113348;28;20036;-67
2022/08/16 04:01:02;;;;;;;3.50;3.22;;;25.00;59.30;;;;;;5112865;28;20047;-67
2022/08/16 04:03:28;;;;;;;4.00;3.67;;;25.00;59.30;;;;;;5114270;28;20043;-67
2022/08/16 04:05:54;;;;;;;3.35;3.10;;;25.00;59.40;;;;;;5112712;28;20047;-67
2022/08/16 04:08:20;;;;;;;3.22;3.03;;;25.00;59.40;;;;;;5112543;28;20039;-67
2022/08/16 04:10:47;;;;;;;3.22;3.03;;;24.90;59.30;;;;;;5111914;28;20395;-67
2022/08/16 04:13:13;;;;;;;3.47;3.17;;;25.00;59.30;;;;;;5113816;28;20536;-67
2022/08/16 04:15:42;;;;;;;3.65;3.38;;;25.00;59.30;;;;;;5112577;28;20039;-66
2022/08/16 04:18:08;;;;;;;3.25;3.05;;;25.00;59.30;;;;;;5112418;28;20067;-69
2022/08/16 04:20:34;;;;;;;3.00;2.80;;;25.00;59.30;;;;;;5112680;28;20079;-67
2022/08/16 04:23:00;;;;;;;3.50;3.20;;;24.90;59.30;;;;;;5113609;28;20398;-67
2022/08/16 04:25:26;;;;;;;3.80;3.47;;;24.90;59.30;;;;;;5112311;28;20039;-67
2022/08/16 04:27:52;;;;;;;3.50;3.30;;;24.90;59.30;;;;;;5112382;28;20040;-67
2022/08/16 04:30:21;;;;;;;3.35;3.15;;;24.90;59.30;;;;;;5112526;28;20047;-66
2022/08/16 04:32:47;;;;;;;3.40;3.20;;;24.90;59.30;;;;;;5112423;28;20039;-67
2022/08/16 04:35:16;;;;;;;3.35;3.10;;;24.90;59.30;;;;;;5112494;28;20043;-67
2022/08/16 04:37:45;;;;;;;3.38;3.17;;;24.90;59.30;;;;;;5112096;28;20043;-67
2022/08/16 04:40:12;;;;;;;3.80;3.50;;;24.90;59.30;;;;;;5111949;28;20043;-68
2022/08/16 04:42:39;;;;;;;3.60;3.40;;;24.90;59.30;;;;;;5113800;28;20441;-67
2022/08/16 04:45:07;;;;;;;3.33;3.05;;;24.90;59.30;;;;;;5112004;28;20044;-67
2022/08/16 04:47:33;;;;;;;3.40;3.10;;;24.90;59.30;;;;;;5111698;28;20077;-69
2022/08/16 04:50:09;;;;;;;3.55;3.35;;;24.90;59.30;;;;;;5112065;28;20039;-67
2022/08/16 04:52:35;;;;;;;3.22;3.03;;;24.90;59.30;;;;;;5112110;28;20039;-67
2022/08/16 04:55:04;;;;;;;3.40;3.20;;;24.90;59.30;;;;;;5111647;28;20064;-67
2022/08/16 04:57:30;;;;;;;3.13;2.92;;;24.90;59.30;;;;;;5094779;28;20495;-67
2022/08/16 04:59:57;;;;;;;3.58;3.38;;;24.90;59.30;;;;;;5113023;28;20032;-67
2022/08/16 05:02:22;;;;;;;3.50;3.30;;;24.90;59.30;;;;;;5128883;27;20051;-67
2022/08/16 05:04:48;;;;;;;3.88;3.58;;;24.90;59.30;;;;;;5111500;28;20043;-67
2022/08/16 05:07:13;;;;;;;3.80;3.50;;;24.90;59.30;;;;;;5112724;28;20032;-67
2022/08/16 05:09:39;;;;;;;3.63;3.42;;;24.80;59.20;;;;;;5112685;28;20036;-67
2022/08/16 05:12:05;;;;;;;3.83;3.53;;;24.80;59.20;;;;;;5111851;28;20040;-67
2022/08/16 05:14:30;;;;;;;3.25;3.05;;;24.80;59.20;;;;;;5112603;28;20705;-69
2022/08/16 05:16:56;;;;;;;3.15;2.95;;;24.80;59.30;;;;;;5111463;28;20035;-69
2022/08/16 05:19:23;;;;;;;3.67;3.40;;;24.90;59.30;;;;;;5111198;28;20040;-67
2022/08/16 05:21:49;;;;;;;3.85;3.55;;;24.90;59.30;;;;;;5111087;28;20039;-67
2022/08/16 05:24:14;;;;;;;3.35;3.15;;;24.80;59.20;;;;;;5111433;28;20041;-67
2022/08/16 05:26:40;;;;;;;3.05;2.85;;;24.80;59.20;;;;;;5111183;28;20437;-67
2022/08/16 05:29:06;;;;;;;3.50;3.25;;;24.80;59.20;;;;;;5111201;28;20066;-67
2022/08/16 05:31:32;;;;;;;3.88;3.58;;;24.80;59.20;;;;;;5111035;28;20100;-67
2022/08/16 05:34:00;;;;;;;3.47;3.25;;;24.80;59.20;;;;;;5111428;28;20073;-67
2022/08/16 05:36:26;;;;;;;3.40;3.10;;;24.80;59.20;;;;;;5111461;28;20387;-67
2022/08/16 05:38:51;;;;;;;3.22;3.03;;;24.80;59.20;;;;;;5112282;28;20404;-66
2022/08/16 05:41:17;;;;;;;3.22;3.03;;;24.80;59.10;;;;;;5111057;28;20047;-67
2022/08/16 05:43:43;;;;;;;3.35;3.15;;;24.80;59.10;;;;;;5111214;28;20046;-67
2022/08/16 05:46:11;;;;;;;3.30;3.10;;;24.80;59.10;;;;;;5112231;28;20036;-67
2022/08/16 05:48:36;;;;;;;3.88;3.58;;;24.80;59.10;;;;;;5110775;28;20488;-67
2022/08/16 05:51:02;;;;;;;3.70;3.33;;;24.80;59.10;;;;;;5112121;28;20046;-66
2022/08/16 05:53:28;;;;;;;3.25;3.05;;;24.80;59.10;;;;;;5111074;28;20039;-67
2022/08/16 05:55:54;;;;;;;3.47;3.28;;;24.80;59.10;;;;;;5110835;28;20027;-67
2022/08/16 05:58:19;;;;;;;3.60;3.30;;;24.80;59.10;;;;;;5112165;28;20050;-67
2022/08/16 06:00:45;;;;;;;4.32;3.78;;;24.80;59.10;;;;;;5111992;28;20116;-67
2022/08/16 06:03:10;;;;;;;3.92;3.50;;;24.80;59.10;;;;;;5110858;28;20032;-67
2022/08/16 06:05:37;;;;;;;4.10;3.80;;;24.80;59.10;;;;;;5112154;28;20027;-67
2022/08/16 06:08:02;;;;;;;3.42;3.22;;;24.80;59.10;;;;;;5111999;28;20039;-66
2022/08/16 06:10:28;;;;;;;3.42;3.22;;;24.80;59.00;;;;;;5112052;28;20092;-67
2022/08/16 06:12:54;;;;;;;3.47;3.22;;;24.80;59.10;;;;;;5110919;28;20047;-66
2022/08/16 06:15:19;;;;;;;3.55;3.35;;;24.80;59.10;;;;;;5110760;28;20035;-67
2022/08/16 06:17:46;;;;;;;3.35;3.08;;;24.80;59.00;;;;;;5110768;28;20044;-66
2022/08/16 06:20:16;;;;;;;3.53;3.33;;;24.80;59.00;;;;;;5110675;28;20040;-67
2022/08/16 06:22:44;;;;;;;3.55;3.25;;;24.80;59.00;;;;;;5110979;28;20047;-66
2022/08/16 06:25:11;;;;;;;3.88;3.65;;;24.80;59.10;;;;;;5110525;28;20050;-66
2022/08/16 06:27:38;;;;;;;3.60;3.30;;;24.80;59.00;;;;;;5111890;28;20055;-67
2022/08/16 06:30:06;;;;;;;3.65;3.35;;;24.80;59.00;;;;;;5110672;28;20100;-67
2022/08/16 06:32:32;;;;;;;3.50;3.30;;;24.80;59.00;;;;;;5110565;28;20047;-67
2022/08/16 06:34:58;;;;;;;3.50;3.30;;;24.80;59.00;;;;;;5113116;28;20039;-67
2022/08/16 06:37:24;;;;;;;3.50;3.30;;;24.80;59.00;;;;;;5115872;27;20093;-69
2022/08/16 06:39:49;;;;;;;3.47;3.17;;;24.70;58.90;;;;;;5114447;28;20098;-67
2022/08/16 06:42:16;;;;;;;3.70;3.42;;;24.70;58.90;;;;;;5115651;28;20035;-67
2022/08/16 06:44:41;;;;;;;3.97;3.67;;;24.80;59.00;;;;;;5115985;28;20036;-67
2022/08/16 06:47:07;;;;;;;3.38;3.17;;;24.70;58.90;;;;;;5114080;28;20058;-67
2022/08/16 06:49:33;;;;;;;3.53;3.30;;;24.80;59.00;;;;;;5114211;28;20044;-67
2022/08/16 06:51:58;;;;;;;4.32;4.03;;;24.80;58.90;;;;;;5114185;28;20179;-66
2022/08/16 06:54:24;;;;;;;3.05;2.85;;;24.80;58.90;;;;;;5114447;28;20123;-66
2022/08/16 06:56:50;;;;;;;3.83;3.58;;;24.80;58.90;;;;;;5114027;28;20392;-67
2022/08/16 06:59:15;;;;;;;4.00;3.70;;;24.70;58.90;;;;;;5114136;28;20043;-66
2022/08/16 07:01:41;;;;;;;3.92;3.63;;;24.70;58.90;;;;;;5114013;28;20067;-67
2022/08/16 07:04:07;;;;;;;3.65;3.45;;;24.80;58.90;;;;;;5097277;28;20077;-66
2022/08/16 07:06:32;;;;;;;3.95;3.65;;;24.70;58.90;;;;;;5115270;28;20471;-66
2022/08/16 07:08:58;;;;;;;3.97;3.67;;;24.80;58.90;;;;;;5113742;28;20126;-66
2022/08/16 07:11:25;;;;;;;3.58;3.38;;;24.80;58.90;;;;;;5113677;28;20032;-66
2022/08/16 07:13:52;;;;;;;3.33;3.13;;;24.70;58.90;;;;;;5130902;27;20052;-66
2022/08/16 07:16:18;;;;;;;3.47;3.28;;;24.70;58.80;;;;;;5113795;28;20491;-66
2022/08/16 07:18:44;;;;;;;3.90;3.60;;;24.70;59.60;;;;;;5113625;28;20051;-66
2022/08/16 07:21:11;;;;;;;3.92;3.63;;;24.80;58.90;;;;;;5114939;28;20043;-66
2022/08/16 07:23:38;;;;;;;3.75;3.45;;;24.70;58.80;;;;;;5113793;28;20079;-66
2022/08/16 07:26:06;;;;;;;3.63;3.33;;;24.70;58.80;;;;;;5113484;28;20043;-66
2022/08/16 07:28:32;;;;;;;3.97;3.75;;;24.70;58.80;;;;;;5114662;28;20043;-66
2022/08/16 07:31:00;;;;;;;3.13;2.90;;;24.80;58.90;;;;;;5113744;28;20050;-66
2022/08/16 07:33:26;;;;;;;3.90;3.60;;;24.80;58.90;;;;;;5113536;28;20067;-66
2022/08/16 07:35:52;;;;;;;3.80;3.50;;;24.80;58.90;;;;;;5113344;28;20067;-66
2022/08/16 07:38:17;;;;;;;3.70;3.50;;;24.80;58.90;;;;;;5114625;28;20098;-66
2022/08/16 07:40:43;;;;;;;3.75;3.45;;;24.70;58.80;;;;;;5113128;28;20108;-66
2022/08/16 07:43:09;;;;;;;3.38;3.08;;;24.70;58.80;;;;;;5113433;28;20047;-66
2022/08/16 07:45:35;;;;;;;3.45;3.25;;;24.80;58.80;;;;;;5112969;28;20159;-66
2022/08/16 07:48:00;;;;;;;3.85;3.55;;;24.80;58.80;;;;;;5114078;28;20063;-66
2022/08/16 07:50:26;;;;;;;3.40;3.10;;;24.80;58.80;;;;;;5113299;28;20395;-66
2022/08/16 07:52:52;;;;;;;3.88;3.67;;;24.70;58.70;;;;;;5114325;28;20036;-66
2022/08/16 07:55:18;;;;;;;3.85;3.53;;;24.80;58.80;;;;;;5114062;28;20069;-66
2022/08/16 07:57:44;;;;;;;3.97;3.67;;;24.80;58.80;;;;;;5112876;28;20047;-66
2022/08/16 08:00:11;;;;;;;3.30;3.00;;;24.80;58.80;;;;;;5114128;28;20501;-69
2022/08/16 08:02:37;;;;;;;3.25;3.03;;;24.80;58.80;;;;;;5114158;28;20024;-66
2022/08/16 08:05:03;;;;;;;4.30;3.63;;;24.80;58.80;;;;;;5130105;27;20506;-66
2022/08/16 08:07:29;;;;;;;4.18;3.88;;;24.80;58.70;;;;;;5113919;28;20514;-66
2022/08/16 08:09:56;;;;;;;3.80;3.50;;;24.80;58.70;;;;;;5112845;28;20046;-66
2022/08/16 08:12:22;;;;;;;4.13;3.83;;;24.80;58.70;;;;;;5129711;27;20035;-69
2022/08/16 08:14:48;;;;;;;3.72;3.53;;;24.80;58.70;;;;;;5112565;28;20040;-66
2022/08/16 08:17:15;;;;;;;3.78;3.58;;;24.80;58.70;;;;;;5112835;28;20047;-66
2022/08/16 08:19:40;;;;;;;3.83;3.53;;;24.80;58.70;;;;;;5112617;28;20075;-66
2022/08/16 08:22:08;;;;;;;4.18;3.88;;;24.80;58.70;;;;;;5113692;28;20086;-66
2022/08/16 08:24:37;;;;;;;4.03;3.72;;;24.80;58.70;;;;;;5112482;28;20119;-66
2022/08/16 08:27:05;;;;;;;4.45;4.05;;;24.80;58.70;;;;;;5112154;28;20042;-66
2022/08/16 08:29:31;;;;;;;4.13;3.83;;;24.80;58.70;;;;;;5112612;28;20084;-66
2022/08/16 08:31:59;;;;;;;4.38;4.07;;;24.90;58.70;;;;;;5129472;27;20049;-66
2022/08/16 08:34:25;;;;;;;4.07;3.83;;;24.80;58.60;;;;;;5112249;28;20027;-66
2022/08/16 08:36:51;;;;;;;3.90;3.60;;;24.80;58.60;;;;;;5112177;28;20165;-66
2022/08/16 08:39:17;;;;;;;4.20;3.90;;;24.80;58.60;;;;;;5112358;28;20582;-66
2022/08/16 08:41:43;;;;;;;4.05;3.75;;;24.80;58.50;;;;;;5112469;28;20329;-66
2022/08/16 08:44:09;;;;;;;3.90;3.60;;;24.80;58.50;;;;;;5112104;28;20039;-66
2022/08/16 08:46:35;;;;;;;4.47;4.18;;;24.80;58.50;;;;;;5113159;28;20031;-66
2022/08/16 08:49:01;;;;;;;3.90;3.63;;;24.80;58.50;;;;;;5111479;28;20376;-66
2022/08/16 08:51:27;;;;;;;3.67;3.47;;;24.80;58.40;;;;;;5112085;28;20077;-66
2022/08/16 08:53:53;;;;;;;4.68;4.35;;;24.90;58.40;;;;;;5113021;28;20047;-66
2022/08/16 08:56:19;;;;;;;4.43;4.13;;;24.90;58.30;;;;;;5111583;28;20043;-65
2022/08/16 08:58:45;;;;;;;4.70;4.25;;;24.90;58.30;;;;;;5111805;28;20077;-66
2022/08/16 09:01:11;;;;;;;3.40;3.20;;;24.80;58.20;;;;;;5111557;28;20510;-66
2022/08/16 09:03:38;;;;;;;4.22;3.92;;;24.90;58.20;;;;;;5112877;28;20036;-66
2022/08/16 09:06:07;;;;;;;3.95;3.65;;;24.90;58.20;;;;;;5111830;28;20058;-66
2022/08/16 09:08:33;;;;;;;4.50;4.20;;;24.90;58.20;;;;;;5112672;28;20084;-66
2022/08/16 09:10:59;;;;;;;3.92;3.63;;;24.90;58.10;;;;;;5111503;28;20088;-66
2022/08/16 09:13:26;;;;;;;3.65;3.45;;;24.90;58.10;;;;;;5111760;28;20039;-66
2022/08/16 09:15:54;;;;;;;4.28;3.97;;;24.90;58.10;;;;;;5112814;28;20044;-66
2022/08/16 09:18:22;;;;;;;3.47;3.28;;;24.90;58.00;;;;;;5111579;28;20043;-66
2022/08/16 09:20:51;;;;;;;4.65;4.30;;;25.00;58.00;;;;;;5128908;27;20383;-66
2022/08/16 09:23:18;;;;;;;3.95;3.65;;;25.00;57.90;;;;;;5111324;28;20368;-66
2022/08/16 09:25:44;;;;;;;3.78;3.58;;;25.00;57.90;;;;;;5112542;28;20039;-66
2022/08/16 09:28:10;;;;;;;4.18;3.88;;;25.00;57.90;;;;;;5111040;28;20372;-66
2022/08/16 09:30:36;;;;;;;3.95;3.70;;;25.00;57.80;;;;;;5111257;28;20043;-66
2022/08/16 09:33:05;;;;;;;4.25;3.85;;;25.10;57.80;;;;;;5111069;28;20047;-66
2022/08/16 09:35:31;;;;;;;4.32;4.00;;;25.10;57.70;;;;;;5128367;27;20085;-66
2022/08/16 09:37:57;;;;;;;4.13;3.78;;;25.10;57.70;;;;;;5111329;28;20040;-66
2022/08/16 09:40:23;;;;;;;4.20;3.90;;;25.10;57.60;;;;;;5111061;28;20047;-68
2022/08/16 09:42:49;;;;;;;3.75;3.55;;;25.20;57.60;;;;;;5111049;28;20043;-66
2022/08/16 09:45:15;;;;;;;3.95;3.67;;;25.20;57.60;;;;;;5111099;28;20070;-66
2022/08/16 09:47:41;;;;;;;4.10;3.80;;;25.20;57.50;;;;;;5110739;28;20040;-66
2022/08/16 09:50:10;;;;;;;3.70;3.40;;;25.20;57.40;;;;;;5110994;28;20067;-66
2022/08/16 09:52:36;;;;;;;4.00;3.70;;;25.20;57.40;;;;;;5111295;28;20035;-66
2022/08/16 09:55:07;;;;;;;3.90;3.60;;;25.20;57.30;;;;;;5112147;28;20040;-66
2022/08/16 09:57:33;;;;;;;3.50;3.30;;;25.20;57.20;;;;;;5111002;28;20046;-66
2022/08/16 10:00:00;;;;;;;4.13;3.83;;;25.30;57.30;;;;;;5111113;28;20044;-66
2022/08/16 10:02:26;;;;;;;3.67;3.47;;;25.30;57.20;;;;;;5112145;28;20028;-65
2022/08/16 10:04:52;;;;;;;4.10;3.90;;;25.30;57.20;;;;;;5111166;28;20054;-66
2022/08/16 10:07:18;;;;;;;4.28;3.53;;;25.30;57.10;;;;;;5110999;28;20473;-66
2022/08/16 10:09:44;;;;;;;4.25;3.95;;;25.40;57.20;;;;;;5114167;28;20463;-66
2022/08/16 10:14:56;;;;;;;3.85;3.50;;;25.40;57.10;;;;;;5116188;28;20039;-66
2022/08/16 10:17:23;;;;;;;4.07;3.80;;;25.40;57.10;;;;;;5116163;28;20395;-66
2022/08/16 10:19:50;;;;;;;3.63;3.33;;;25.40;57.00;;;;;;5114897;28;20047;-66
2022/08/16 10:22:16;;;;;;;4.00;3.70;;;25.40;57.00;;;;;;5116279;28;20039;-68
2022/08/16 10:24:42;;;;;;;4.93;3.67;;;25.40;57.00;;;;;;5115898;28;20069;-65
2022/08/16 10:27:08;;;;;;;3.40;3.20;;;25.40;57.00;;;;;;5114923;28;20442;-66
2022/08/16 10:29:34;;;;;;;4.22;3.92;;;25.40;56.90;;;;;;5114655;28;20394;-66
2022/08/16 10:31:59;;;;;;;3.67;3.38;;;25.40;56.90;;;;;;5114598;28;20043;-66
2022/08/16 10:34:25;;;;;;;3.90;3.60;;;25.40;56.90;;;;;;5114549;28;20119;-66
2022/08/16 10:36:50;;;;;;;4.70;3.72;;;25.50;56.90;;;;;;5114998;28;20136;-66
2022/08/16 10:39:16;;;;;;;3.65;3.45;;;25.50;56.90;;;;;;5114361;28;20407;-66
2022/08/16 10:41:42;;;;;;;4.95;4.22;;;25.40;56.80;;;;;;5114656;28;20096;-66
2022/08/16 10:44:08;;;;;;;3.70;3.38;;;25.50;56.90;;;;;;5115789;28;20031;-66
2022/08/16 10:46:34;;;;;;;4.10;3.80;;;25.50;56.90;;;;;;5114267;28;20043;-66
2022/08/16 10:49:00;;;;;;;4.03;3.72;;;25.40;56.80;;;;;;5113964;28;20055;-66
2022/08/16 10:51:26;;;;;;;4.22;3.92;;;25.40;56.80;;;;;;5114140;28;20119;-66
2022/08/16 10:53:52;;;;;;;3.70;3.50;;;25.40;56.80;;;;;;5115446;28;20114;-66
2022/08/16 10:56:17;;;;;;;3.10;2.90;;;25.50;56.80;;;;;;5114279;28;20039;-66
2022/08/16 10:58:43;;;;;;;3.60;3.30;;;25.50;56.80;;;;;;5114145;28;20531;-66
2022/08/16 11:01:09;;;;;;;3.88;3.58;;;25.50;56.80;;;;;;5113893;28;20043;-66
2022/08/16 11:03:37;;;;;;;3.85;3.55;;;25.50;57.50;;;;;;5114069;28;20104;-66
2022/08/16 11:06:08;;;;;;;4.15;3.85;;;25.40;56.70;;;;;;5113901;28;20534;-66
2022/08/16 11:08:35;;;;;;;3.88;3.67;;;25.50;56.80;;;;;;5096893;28;20062;-65
2022/08/16 11:11:02;;;;;;;3.60;3.35;;;25.40;56.70;;;;;;5114070;28;20118;-66
2022/08/16 11:13:27;;;;;;;3.83;3.53;;;25.40;56.70;;;;;;5113837;28;20108;-66
2022/08/16 11:15:56;;;;;;;4.07;3.78;;;25.40;56.70;;;;;;5115137;28;20070;-68
2022/08/16 11:18:22;;;;;;;4.03;3.72;;;25.40;56.70;;;;;;5114996;28;20483;-66
2022/08/16 11:20:48;;;;;;;4.00;3.80;;;25.50;56.70;;;;;;5114399;27;20043;-67
2022/08/16 11:23:14;;;;;;;3.33;3.08;;;25.50;56.70;;;;;;5114849;28;20034;-66
2022/08/16 11:25:41;;;;;;;3.75;3.55;;;25.50;56.70;;;;;;5114901;28;20490;-66
2022/08/16 11:28:07;;;;;;;3.65;3.45;;;25.40;56.60;;;;;;5114698;28;20061;-66
2022/08/16 11:30:34;;;;;;;5.72;4.25;;;25.40;56.60;;;;;;5113830;28;20032;-66
2022/08/16 11:33:00;;;;;;;3.97;3.67;;;25.40;56.60;;;;;;5114696;28;20043;-66
2022/08/16 11:35:29;;;;;;;3.75;3.45;;;25.40;56.60;;;;;;5113668;28;20035;-68
2022/08/16 11:40:38;;;;;;;3.50;3.20;;;25.40;56.60;;;;;;5147860;27;1304664;-66
2022/08/16 11:43:05;;;;;;;3.85;3.55;;;25.40;56.60;;;;;;5171868;27;20397;-66
2022/08/16 11:45:33;;;;;;;3.67;3.38;;;25.40;56.60;;;;;;5153326;27;20042;-68
2022/08/16 11:47:59;;;;;;;4.03;3.63;;;25.40;56.60;;;;;;5153375;27;20431;-66
2022/08/16 11:50:26;;;;;;;3.67;3.38;;;25.40;56.50;;;;;;5154710;27;20203;-65
2022/08/16 11:52:51;;;;;;;3.95;3.65;;;25.40;56.50;;;;;;5153444;27;20042;-69
2022/08/16 11:55:18;;;;;;;4.00;3.70;;;25.40;56.50;;;;;;5153843;27;20094;-66
2022/08/16 11:57:44;;;;;;;4.13;3.83;;;25.40;56.50;;;;;;5171639;27;20392;-66
2022/08/16 12:00:13;;;;;;;3.33;3.13;;;25.50;56.50;;;;;;5152709;27;20042;-66
2022/08/16 12:02:40;;;;;;;3.90;3.60;;;25.40;56.50;;;;;;5171474;27;20045;-66
2022/08/16 12:05:08;;;;;;;3.85;3.55;;;25.40;56.40;;;;;;5152951;27;20102;-66
2022/08/16 12:07:34;;;;;;;3.92;3.63;;;25.40;56.40;;;;;;5152834;27;20052;-66
2022/08/16 12:10:00;;;;;;;3.42;3.22;;;25.40;56.40;;;;;;5152524;27;20117;-66
2022/08/16 12:12:26;;;;;;;3.33;3.13;;;25.40;56.40;;;;;;5152711;27;20123;-66
2022/08/16 12:14:52;;;;;;;3.88;3.30;;;25.50;56.40;;;;;;5152810;27;20074;-66
2022/08/16 12:17:18;;;;;;;3.58;3.38;;;25.50;56.40;;;;;;5152774;27;20091;-68
2022/08/16 12:19:44;;;;;;;3.58;3.38;;;25.40;56.30;;;;;;5170975;27;20042;-66
2022/08/16 12:22:10;;;;;;;3.13;2.92;;;25.50;56.40;;;;;;5152539;27;20038;-66
2022/08/16 12:24:36;;;;;;;3.60;3.30;;;25.50;56.30;;;;;;5152755;27;20562;-66
2022/08/16 12:27:04;;;;;;;3.42;3.15;;;25.50;56.30;;;;;;5152625;27;20113;-66
2022/08/16 12:29:29;;;;;;;3.30;3.10;;;25.50;56.30;;;;;;5152369;27;20081;-65
2022/08/16 12:31:55;;;;;;;3.75;3.30;;;25.50;56.30;;;;;;5152420;27;20066;-66
2022/08/16 12:34:21;;;;;;;3.47;3.20;;;25.50;56.30;;;;;;5170908;27;20043;-66
2022/08/16 12:36:47;;;;;;;3.50;3.20;;;25.50;56.30;;;;;;5152370;27;20049;-67
2022/08/16 12:39:13;;;;;;;3.65;3.35;;;25.50;56.30;;;;;;5170589;27;20050;-66
2022/08/16 12:41:39;;;;;;;3.80;3.60;;;25.50;56.40;;;;;;5152255;27;20082;-66
2022/08/16 12:44:05;;;;;;;3.08;2.80;;;25.50;56.30;;;;;;5151801;27;20430;-66
2022/08/16 12:46:32;;;;;;;3.65;3.45;;;25.50;56.30;;;;;;5152216;27;20031;-66
2022/08/16 12:49:00;;;;;;;3.67;3.45;;;25.50;56.40;;;;;;5152111;27;20117;-68
2022/08/16 12:51:31;;;;;;;3.50;3.20;;;25.50;56.30;;;;;;5140645;27;20074;-66
2022/08/16 12:53:58;;;;;;;3.22;3.03;;;25.50;56.30;;;;;;5138183;27;20050;-68
2022/08/16 12:56:32;;;;;;;3.20;2.83;;;25.50;56.30;;;;;;5156320;27;20042;-68